createdAt,value
2019-05-06T00:01:11.689Z,16.26
2019-05-06T00:04:01.937Z,16.46
2019-05-06T00:06:54.594Z,16.34
2019-05-06T00:09:44.460Z,16.35
2019-05-06T00:12:34.933Z,16.47
2019-05-06T00:15:25.300Z,16.60
2019-05-06T00:18:15.851Z,16.56
2019-05-06T00:21:06.250Z,16.46
2019-05-06T00:23:56.906Z,16.44
2019-05-06T00:27:06.815Z,16.26
2019-05-06T00:29:57.512Z,16.38
2019-05-06T00:32:47.942Z,16.37
2019-05-06T00:35:38.409Z,16.60
2019-05-06T00:38:28.816Z,16.58
2019-05-06T00:41:26.602Z,16.51
2019-05-06T00:44:16.801Z,16.46
2019-05-06T00:47:07.327Z,16.47
2019-05-06T00:49:57.776Z,16.47
2019-05-06T00:52:48.928Z,16.47
2019-05-06T00:55:39.412Z,16.22
2019-05-06T00:58:30.105Z,16.14
2019-05-06T01:01:26.989Z,15.98
2019-05-06T01:04:13.918Z,16.19
2019-05-06T01:07:04.412Z,16.16
2019-05-06T01:09:55.373Z,16.34
2019-05-06T01:12:58.222Z,16.47
2019-05-06T01:15:48.400Z,16.40
2019-05-06T01:18:38.774Z,16.35
2019-05-06T01:21:29.314Z,16.20
2019-05-06T01:24:19.902Z,16.20
2019-05-06T01:27:10.234Z,16.08
2019-05-06T01:30:00.781Z,16.09
2019-05-06T01:32:51.386Z,16.08
2019-05-06T01:35:41.642Z,15.97
2019-05-06T01:38:36.657Z,15.92
2019-05-06T01:41:44.784Z,15.78
2019-05-06T01:44:35.213Z,15.88
2019-05-06T01:47:25.783Z,15.96
2019-05-06T01:50:16.264Z,15.98
2019-05-06T01:53:06.620Z,15.94
2019-05-06T01:55:57.193Z,16.06
2019-05-06T01:58:47.748Z,16.16
2019-05-06T02:01:38.327Z,16.17
2019-05-06T02:04:28.530Z,16.12
2019-05-06T02:07:19.752Z,16.15
2019-05-06T02:10:09.942Z,16.14
2019-05-06T02:13:00.478Z,16.19
2019-05-06T02:15:51.137Z,16.19
2019-05-06T02:18:41.881Z,16.16
2019-05-06T02:21:55.610Z,16.04
2019-05-06T02:24:58.589Z,16.08
2019-05-06T02:27:48.868Z,16.12
2019-05-06T02:31:16.430Z,16.22
2019-05-06T02:34:16.234Z,16.10
2019-05-06T02:37:14.654Z,16.17
2019-05-06T02:40:05.461Z,16.04
2019-05-06T02:42:55.909Z,15.98
2019-05-06T02:45:46.487Z,15.93
2019-05-06T02:48:45.210Z,15.88
2019-05-06T02:51:35.646Z,15.90
2019-05-06T02:54:26.129Z,15.93
2019-05-06T02:57:16.538Z,15.94
2019-05-06T03:00:08.728Z,15.91
2019-05-06T03:02:59.052Z,15.91
2019-05-06T03:05:49.535Z,15.98
2019-05-06T03:08:43.439Z,15.91
2019-05-06T03:11:33.960Z,15.93
2019-05-06T03:14:24.612Z,16.01
2019-05-06T03:17:15.073Z,15.99
2019-05-06T03:20:07.282Z,15.99
2019-05-06T03:23:03.709Z,16.04
2019-05-06T03:25:54.496Z,16.09
2019-05-06T03:28:45.990Z,16.29
2019-05-06T03:31:36.918Z,16.25
2019-05-06T03:34:49.775Z,16.18
2019-05-06T03:37:19.423Z,16.23
2019-05-06T03:40:13.817Z,16.28
2019-05-06T03:43:05.856Z,16.35
2019-05-06T03:46:23.171Z,16.44
2019-05-06T03:49:13.506Z,16.54
2019-05-06T03:52:04.101Z,16.71
2019-05-06T03:54:54.441Z,16.91
2019-05-06T03:57:47.995Z,17.30
2019-05-06T04:00:38.573Z,18.38
2019-05-06T04:03:43.952Z,19.70
2019-05-06T04:06:23.890Z,20.81
2019-05-06T04:09:13.436Z,23.17
2019-05-06T04:12:03.778Z,23.17
2019-05-06T04:14:54.989Z,23.77
2019-05-06T04:17:54.141Z,24.88
2019-05-06T04:20:56.700Z,25.69
2019-05-06T04:24:22.874Z,26.66
2019-05-06T04:27:33.895Z,27.98
2019-05-06T04:30:24.938Z,29.43
2019-05-06T04:33:17.449Z,27.68
2019-05-06T04:36:08.669Z,26.67
2019-05-06T04:38:59.480Z,26.52
2019-05-06T04:41:53.610Z,27.86
2019-05-06T04:44:43.924Z,29.23
2019-05-06T04:47:34.713Z,30.88
2019-05-06T04:50:26.044Z,32.32
2019-05-06T04:53:17.147Z,33.43
2019-05-06T04:56:08.277Z,34.76
2019-05-06T04:58:59.323Z,35.81
2019-05-06T05:01:53.169Z,36.72
2019-05-06T05:04:43.405Z,37.43
2019-05-06T05:07:34.210Z,38.52
2019-05-06T05:10:28.881Z,39.38
2019-05-06T05:13:37.855Z,39.59
2019-05-06T05:16:43.309Z,40.38
2019-05-06T05:19:34.448Z,40.38
2019-05-06T05:22:25.934Z,41.56
2019-05-06T05:25:16.820Z,42.23
2019-05-06T05:28:07.860Z,42.63
2019-05-06T05:30:59.057Z,43.14
2019-05-06T05:33:52.639Z,43.23
2019-05-06T05:36:43.179Z,44.56
2019-05-06T05:39:34.171Z,43.97
2019-05-06T05:42:48.355Z,39.33
2019-05-06T05:45:39.043Z,36.83
2019-05-06T05:48:43.156Z,32.39
2019-05-06T05:51:34.005Z,32.39
2019-05-06T05:54:24.918Z,29.40
2019-05-06T05:57:17.085Z,26.43
2019-05-06T06:00:07.841Z,25.33
2019-05-06T06:02:59.177Z,24.94
2019-05-06T06:05:52.034Z,24.60
2019-05-06T06:08:43.414Z,24.16
2019-05-06T06:11:42.914Z,23.39
2019-05-06T06:14:55.321Z,23.37
2019-05-06T06:17:52.731Z,23.20
2019-05-06T06:20:52.818Z,22.83
2019-05-06T06:23:44.742Z,22.18
2019-05-06T06:26:35.097Z,21.97
2019-05-06T06:29:25.629Z,22.25
2019-05-06T06:32:23.012Z,22.40
2019-05-06T06:35:19.598Z,21.93
2019-05-06T06:38:15.608Z,21.89
2019-05-06T06:41:05.786Z,22.04
2019-05-06T06:44:02.233Z,21.80
2019-05-06T06:46:52.622Z,21.93
2019-05-06T06:49:43.069Z,22.15
2019-05-06T06:52:33.612Z,22.13
2019-05-06T06:55:23.983Z,21.99
2019-05-06T06:58:34.278Z,22.45
2019-05-06T07:01:33.244Z,23.35
2019-05-06T07:04:32.432Z,23.29
2019-05-06T07:07:39.518Z,23.05
2019-05-06T07:10:34.652Z,23.07
2019-05-06T07:13:25.096Z,24.77
2019-05-06T07:16:15.950Z,25.80
2019-05-06T07:19:07.094Z,28.90
2019-05-06T07:21:58.933Z,31.74
2019-05-06T07:24:49.696Z,30.83
2019-05-06T07:27:42.100Z,28.26
2019-05-06T07:30:34.377Z,25.65
2019-05-06T07:33:25.557Z,25.74
2019-05-06T07:36:16.690Z,25.75
2019-05-06T07:39:08.036Z,25.50
2019-05-06T07:42:02.467Z,25.13
2019-05-06T07:45:12.411Z,24.81
2019-05-06T07:48:06.436Z,24.88
2019-05-06T07:50:58.788Z,25.41
2019-05-06T07:53:52.330Z,25.03
2019-05-06T07:56:43.466Z,25.16
2019-05-06T07:59:34.510Z,25.46
2019-05-06T08:02:25.776Z,24.80
2019-05-06T08:05:16.991Z,24.69
2019-05-06T08:08:07.832Z,24.56
2019-05-06T08:10:58.849Z,24.70
2019-05-06T08:13:48.995Z,24.80
2019-05-06T08:16:45.895Z,24.93
2019-05-06T08:19:37.241Z,24.89
2019-05-06T08:22:56.500Z,24.42
2019-05-06T08:25:49.480Z,24.63
2019-05-06T08:28:41.533Z,24.68
2019-05-06T08:31:32.876Z,24.92
2019-05-06T08:34:23.818Z,25.58
2019-05-06T08:37:25.773Z,25.45
2019-05-06T08:40:16.824Z,26.51
2019-05-06T08:43:07.854Z,29.50
2019-05-06T08:45:58.935Z,31.30
2019-05-06T08:48:52.348Z,32.96
2019-05-06T08:52:04.479Z,34.69
2019-05-06T08:54:56.823Z,37.58
2019-05-06T08:57:47.748Z,37.94
2019-05-06T09:00:44.704Z,37.31
2019-05-06T09:03:35.453Z,36.67
2019-05-06T09:06:30.635Z,36.67
2019-05-06T09:09:18.987Z,35.37
2019-05-06T09:12:10.016Z,33.52
2019-05-06T09:15:03.544Z,30.13
2019-05-06T09:17:55.659Z,27.78
2019-05-06T09:20:46.388Z,26.81
2019-05-06T09:23:38.066Z,25.59
2019-05-06T09:26:36.579Z,24.96
2019-05-06T09:29:35.745Z,24.88
2019-05-06T09:32:36.061Z,24.79
2019-05-06T09:35:24.684Z,24.79
2019-05-06T09:38:15.887Z,24.82
2019-05-06T09:41:07.292Z,24.85
2019-05-06T09:43:57.837Z,24.22
2019-05-06T09:46:48.904Z,24.42
2019-05-06T09:49:42.402Z,24.26
2019-05-06T09:52:33.268Z,23.90
2019-05-06T09:55:42.984Z,23.81
2019-05-06T09:58:49.130Z,23.74
2019-05-06T10:01:39.480Z,23.51
2019-05-06T10:04:32.515Z,23.52
2019-05-06T10:07:22.784Z,23.57
2019-05-06T10:10:13.078Z,23.58
2019-05-06T10:13:03.665Z,23.52
2019-05-06T10:15:57.549Z,23.44
2019-05-06T10:18:46.123Z,23.58
2019-05-06T10:21:36.577Z,23.62
2019-05-06T10:24:26.911Z,23.64
2019-05-06T10:27:22.593Z,23.80
2019-05-06T10:30:12.698Z,23.63
2019-05-06T10:33:06.190Z,23.61
2019-05-06T10:35:59.407Z,23.71
2019-05-06T10:38:58.784Z,23.68
2019-05-06T10:41:50.865Z,23.67
2019-05-06T10:44:54.670Z,24.05
2019-05-06T10:47:45.075Z,24.13
2019-05-06T10:50:39.769Z,24.20
2019-05-06T10:53:30.146Z,24.36
2019-05-06T10:56:52.290Z,24.19
2019-05-06T10:59:32.651Z,24.34
2019-05-06T11:02:42.986Z,24.33
2019-05-06T11:05:34.213Z,24.29
2019-05-06T11:08:24.975Z,24.43
2019-05-06T11:11:30.638Z,24.46
2019-05-06T11:14:07.531Z,24.37
2019-05-06T11:16:57.988Z,24.43
2019-05-06T11:19:49.424Z,24.54
2019-05-06T11:22:40.008Z,24.64
2019-05-06T11:25:32.303Z,24.39
2019-05-06T11:28:42.403Z,24.15
2019-05-06T11:31:39.113Z,24.26
2019-05-06T11:34:39.370Z,24.19
2019-05-06T11:37:54.814Z,24.04
2019-05-06T11:40:44.738Z,24.20
2019-05-06T11:43:35.734Z,24.45
2019-05-06T11:46:26.617Z,24.48
2019-05-06T11:49:17.729Z,24.42
2019-05-06T11:52:08.676Z,24.41
2019-05-06T11:55:02.050Z,24.41
2019-05-06T11:57:52.911Z,24.42
2019-05-06T12:00:44.612Z,24.22
2019-05-06T12:03:35.043Z,24.27
2019-05-06T12:06:25.882Z,24.17
2019-05-06T12:09:17.341Z,24.52
2019-05-06T12:12:07.934Z,24.62
2019-05-06T12:14:58.478Z,24.81
2019-05-06T12:17:50.506Z,24.95
2019-05-06T12:20:42.577Z,24.81
2019-05-06T12:23:35.465Z,24.72
2019-05-06T12:26:25.563Z,24.53
2019-05-06T12:29:16.011Z,24.34
2019-05-06T12:32:26.807Z,24.37
2019-05-06T12:35:17.027Z,24.19
2019-05-06T12:38:23.065Z,24.29
2019-05-06T12:41:03.452Z,24.43
2019-05-06T12:43:57.470Z,24.49
2019-05-06T12:47:00.047Z,24.35
2019-05-06T12:49:49.736Z,23.93
2019-05-06T12:52:43.818Z,23.78
2019-05-06T12:55:33.677Z,23.82
2019-05-06T12:58:24.349Z,23.73
2019-05-06T13:01:14.630Z,23.60
2019-05-06T13:04:05.096Z,23.39
2019-05-06T13:06:55.434Z,23.44
2019-05-06T13:09:45.658Z,23.62
2019-05-06T13:12:38.159Z,23.62
2019-05-06T13:15:28.514Z,23.70
2019-05-06T13:18:19.023Z,23.75
2019-05-06T13:21:09.955Z,23.84
2019-05-06T13:24:06.131Z,23.64
2019-05-06T13:26:58.895Z,23.72
2019-05-06T13:29:48.574Z,23.78
2019-05-06T13:32:42.585Z,23.92
2019-05-06T13:35:32.892Z,24.16
2019-05-06T13:38:23.258Z,24.25
2019-05-06T13:41:13.774Z,24.30
2019-05-06T13:44:13.158Z,24.38
2019-05-06T13:47:04.432Z,24.41
2019-05-06T13:49:58.257Z,24.51
2019-05-06T13:53:06.565Z,24.27
2019-05-06T13:55:42.862Z,24.14
2019-05-06T13:58:32.975Z,24.00
2019-05-06T14:01:25.151Z,23.78
2019-05-06T14:04:15.890Z,23.71
2019-05-06T14:07:07.396Z,23.63
2019-05-06T14:10:02.754Z,23.77
2019-05-06T14:12:53.482Z,23.63
2019-05-06T14:15:43.944Z,23.45
2019-05-06T14:18:37.513Z,23.41
2019-05-06T14:21:26.216Z,23.33
2019-05-06T14:24:22.025Z,23.14
2019-05-06T14:27:13.215Z,23.09
2019-05-06T14:30:09.635Z,23.00
2019-05-06T14:32:59.815Z,22.73
2019-05-06T14:35:52.474Z,22.66
2019-05-06T14:38:42.989Z,22.63
2019-05-06T14:41:33.416Z,22.61
2019-05-06T14:44:23.828Z,22.56
2019-05-06T14:47:23.258Z,22.29
2019-05-06T14:50:15.053Z,22.42
2019-05-06T14:53:05.478Z,22.26
2019-05-06T14:55:57.293Z,22.38
2019-05-06T14:59:04.504Z,22.02
2019-05-06T15:01:54.957Z,21.94
2019-05-06T15:04:45.392Z,21.57
2019-05-06T15:07:35.767Z,21.27
2019-05-06T15:10:26.636Z,21.29
2019-05-06T15:13:18.199Z,21.22
2019-05-06T15:16:08.447Z,21.24
2019-05-06T15:18:58.705Z,21.34
2019-05-06T15:21:49.198Z,21.45
2019-05-06T15:24:39.664Z,21.47
2019-05-06T15:27:30.197Z,21.49
2019-05-06T15:30:28.718Z,21.28
2019-05-06T15:33:22.474Z,21.13
2019-05-06T15:36:36.814Z,21.19
2019-05-06T15:39:27.422Z,21.17
2019-05-06T15:42:18.011Z,20.99
2019-05-06T15:45:09.010Z,20.96
2019-05-06T15:47:59.217Z,20.57
2019-05-06T15:50:53.042Z,20.80
2019-05-06T15:53:45.024Z,20.73
2019-05-06T15:56:35.625Z,20.73
2019-05-06T15:59:26.035Z,20.63
2019-05-06T16:02:16.527Z,20.55
2019-05-06T16:05:17.583Z,20.45
2019-05-06T16:07:58.488Z,20.37
2019-05-06T16:10:52.592Z,20.27
2019-05-06T16:13:42.561Z,20.14
2019-05-06T16:16:33.417Z,20.26
2019-05-06T16:19:23.832Z,20.07
2019-05-06T16:22:15.028Z,20.14
2019-05-06T16:25:09.918Z,20.31
2019-05-06T16:28:02.130Z,20.29
2019-05-06T16:30:53.387Z,20.20
2019-05-06T16:33:43.915Z,20.32
2019-05-06T16:36:36.691Z,20.20
2019-05-06T16:39:27.060Z,20.14
2019-05-06T16:42:17.443Z,20.00
2019-05-06T16:45:07.797Z,19.76
2019-05-06T16:47:57.988Z,19.71
2019-05-06T16:50:48.210Z,19.71
2019-05-06T16:53:39.371Z,19.54
2019-05-06T16:56:52.818Z,19.23
2019-05-06T16:59:43.153Z,19.13
2019-05-06T17:02:43.174Z,19.11
2019-05-06T17:05:52.013Z,19.18
2019-05-06T17:08:42.596Z,18.98
2019-05-06T17:11:34.606Z,19.05
2019-05-06T17:14:24.944Z,19.06
2019-05-06T17:17:15.146Z,19.08
2019-05-06T17:20:05.582Z,19.02
2019-05-06T17:22:56.356Z,19.01
2019-05-06T17:25:46.636Z,18.99
2019-05-06T17:28:43.822Z,19.03
2019-05-06T17:31:43.421Z,18.98
2019-05-06T17:34:36.984Z,19.07
2019-05-06T17:37:45.090Z,19.07
2019-05-06T17:40:35.766Z,19.11
2019-05-06T17:43:25.836Z,18.96
2019-05-06T17:46:18.800Z,18.92
2019-05-06T17:49:12.969Z,18.73
2019-05-06T17:52:06.075Z,18.74
2019-05-06T17:54:58.329Z,18.73
2019-05-06T17:57:48.721Z,18.73
2019-05-06T18:00:39.050Z,18.54
2019-05-06T18:03:29.343Z,18.51
2019-05-06T18:06:19.808Z,18.37
2019-05-06T18:09:12.639Z,18.30
2019-05-06T18:12:03.874Z,18.28
2019-05-06T18:14:54.270Z,18.09
2019-05-06T18:17:44.811Z,18.12
2019-05-06T18:20:39.071Z,18.07
2019-05-06T18:23:29.319Z,18.16
2019-05-06T18:26:19.834Z,18.05
2019-05-06T18:29:12.360Z,18.06
2019-05-06T18:32:03.778Z,17.95
2019-05-06T18:34:53.808Z,17.94
2019-05-06T18:37:44.242Z,18.01
2019-05-06T18:40:35.520Z,17.98
2019-05-06T18:43:25.889Z,17.89
2019-05-06T18:46:16.315Z,17.88
2019-05-06T18:49:06.755Z,17.87
2019-05-06T18:51:57.225Z,17.83
2019-05-06T18:54:47.624Z,17.81
2019-05-06T18:57:38.107Z,17.70
2019-05-06T19:00:29.341Z,17.51
2019-05-06T19:03:19.829Z,17.56
2019-05-06T19:06:11.943Z,17.56
2019-05-06T19:09:22.800Z,17.47
2019-05-06T19:12:28.399Z,17.40
2019-05-06T19:15:05.381Z,17.37
2019-05-06T19:17:55.954Z,17.45
2019-05-06T19:20:46.640Z,17.45
2019-05-06T19:23:36.918Z,17.31
2019-05-06T19:26:27.179Z,17.34
2019-05-06T19:29:17.619Z,17.25
2019-05-06T19:32:07.932Z,17.21
2019-05-06T19:34:58.382Z,17.16
2019-05-06T19:37:48.794Z,17.08
2019-05-06T19:40:39.166Z,17.01
2019-05-06T19:43:29.333Z,16.90
2019-05-06T19:46:21.374Z,16.82
2019-05-06T19:49:11.395Z,16.72
2019-05-06T19:52:03.225Z,16.69
2019-05-06T19:54:54.887Z,16.71
2019-05-06T19:57:45.728Z,16.59
2019-05-06T20:00:37.353Z,16.56
2019-05-06T20:03:27.964Z,16.50
2019-05-06T20:06:37.162Z,16.46
2019-05-06T20:09:46.338Z,16.45
2019-05-06T20:13:00.981Z,16.38
2019-05-06T20:15:42.844Z,16.10
2019-05-06T20:18:33.115Z,16.21
2019-05-06T20:21:24.519Z,16.09
2019-05-06T20:24:14.849Z,16.12
2019-05-06T20:27:05.105Z,16.06
2019-05-06T20:29:55.210Z,16.04
2019-05-06T20:32:45.645Z,15.94
2019-05-06T20:35:36.004Z,15.93
2019-05-06T20:38:26.147Z,15.98
2019-05-06T20:41:16.545Z,15.98
2019-05-06T20:44:07.875Z,16.04
2019-05-06T20:46:58.412Z,16.00
2019-05-06T20:49:48.957Z,15.98
2019-05-06T20:52:42.441Z,16.12
2019-05-06T20:55:35.542Z,16.11
2019-05-06T20:58:25.227Z,16.14
2019-05-06T21:01:15.754Z,16.17
2019-05-06T21:04:08.504Z,16.14
2019-05-06T21:06:58.678Z,16.22
2019-05-06T21:09:49.123Z,16.25
2019-05-06T21:12:39.584Z,16.25
2019-05-06T21:15:32.297Z,16.29
2019-05-06T21:18:22.889Z,16.37
2019-05-06T21:21:13.657Z,16.48
2019-05-06T21:24:04.047Z,16.51
2019-05-06T21:26:54.425Z,16.57
2019-05-06T21:29:44.551Z,16.53
2019-05-06T21:32:35.023Z,16.56
2019-05-06T21:35:25.905Z,16.63
2019-05-06T21:38:16.431Z,16.63
2019-05-06T21:41:07.211Z,16.63
2019-05-06T21:43:57.736Z,16.60
2019-05-06T21:46:48.175Z,16.71
2019-05-06T21:49:38.501Z,16.67
2019-05-06T21:52:39.290Z,16.66
2019-05-06T21:55:22.707Z,16.61
2019-05-06T21:58:12.747Z,16.50
2019-05-06T22:01:06.707Z,16.48
2019-05-06T22:03:58.919Z,16.41
2019-05-06T22:06:49.304Z,16.48
2019-05-06T22:09:39.790Z,16.44
2019-05-06T22:12:31.846Z,16.47
2019-05-06T22:15:22.767Z,16.43
2019-05-06T22:18:13.151Z,16.47
2019-05-06T22:21:14.867Z,16.37
2019-05-06T22:24:07.015Z,16.39
2019-05-06T22:26:57.814Z,16.35
2019-05-06T22:29:48.405Z,16.28
2019-05-06T22:32:47.659Z,16.35
2019-05-06T22:35:38.142Z,16.38
2019-05-06T22:38:28.381Z,16.35
2019-05-06T22:41:18.731Z,16.23
2019-05-06T22:44:13.589Z,16.29
2019-05-06T22:47:02.755Z,16.24
2019-05-06T22:49:54.348Z,16.27
2019-05-06T22:52:44.998Z,16.26
2019-05-06T22:55:35.493Z,16.29
2019-05-06T22:58:25.640Z,16.25
2019-05-06T23:01:44.956Z,16.25
2019-05-06T23:04:35.897Z,16.29
2019-05-06T23:07:27.431Z,16.25
2019-05-06T23:10:17.789Z,16.20
2019-05-06T23:13:08.231Z,16.22
2019-05-06T23:15:58.530Z,16.22
2019-05-06T23:18:49.048Z,16.26
2019-05-06T23:21:39.656Z,16.23
2019-05-06T23:24:32.149Z,16.23
2019-05-06T23:27:23.248Z,16.17
2019-05-06T23:30:13.791Z,16.17
2019-05-06T23:33:04.261Z,16.16
2019-05-06T23:35:54.648Z,16.18
2019-05-06T23:39:22.936Z,16.15
2019-05-06T23:42:52.477Z,16.10
2019-05-06T23:46:18.099Z,16.00
2019-05-06T23:49:44.293Z,15.97
2019-05-06T23:53:12.235Z,15.94
2019-05-06T23:56:38.331Z,15.92
2019-05-06T23:59:28.761Z,15.90
